createdAt,value
2019-03-21T00:05:03.105Z,3.97
2019-03-21T00:11:27.670Z,3.70
2019-03-21T00:16:44.434Z,3.60
2019-03-21T00:22:02.239Z,3.40
2019-03-21T00:27:18.833Z,3.90
2019-03-21T00:32:38.157Z,4.07
2019-03-21T00:37:54.625Z,4.40
2019-03-21T00:43:12.706Z,4.40
2019-03-21T00:48:29.404Z,4.00
2019-03-21T00:53:47.902Z,4.00
2019-03-21T00:59:04.611Z,3.53
2019-03-21T01:04:21.705Z,4.10
2019-03-21T01:09:39.174Z,3.90
2019-03-21T01:14:55.809Z,3.73
2019-03-21T01:20:14.774Z,3.57
2019-03-21T01:25:36.522Z,3.70
2019-03-21T01:30:54.460Z,4.03
2019-03-21T01:36:11.381Z,4.20
2019-03-21T01:41:27.879Z,4.00
2019-03-21T01:46:44.378Z,3.67
2019-03-21T01:52:01.177Z,4.03
2019-03-21T01:57:19.447Z,4.10
2019-03-21T02:02:36.049Z,3.80
2019-03-21T02:07:52.508Z,3.57
2019-03-21T02:13:09.307Z,3.40
2019-03-21T02:18:26.964Z,4.20
2019-03-21T02:23:43.915Z,3.90
2019-03-21T02:29:00.252Z,3.80
2019-03-21T02:34:16.900Z,3.83
2019-03-21T02:39:33.626Z,4.20
2019-03-21T02:44:49.983Z,4.00
2019-03-21T02:50:09.517Z,4.23
2019-03-21T02:55:26.819Z,4.30
2019-03-21T03:00:43.896Z,4.40
2019-03-21T03:06:00.539Z,4.10
2019-03-21T03:11:17.965Z,3.83
2019-03-21T03:16:34.753Z,3.80
2019-03-21T03:21:51.353Z,3.73
2019-03-21T03:27:07.855Z,4.13
2019-03-21T03:32:24.742Z,4.17
2019-03-21T03:37:41.161Z,4.03
2019-03-21T03:42:57.797Z,4.30
2019-03-21T03:48:14.496Z,3.63
2019-03-21T03:53:30.943Z,3.83
2019-03-21T03:58:49.287Z,3.60
2019-03-21T04:04:06.012Z,3.60
2019-03-21T04:09:22.849Z,3.57
2019-03-21T04:14:39.615Z,3.97
2019-03-21T04:19:56.465Z,3.20
2019-03-21T04:25:16.461Z,3.53
2019-03-21T04:30:35.256Z,3.73
2019-03-21T04:35:52.089Z,3.67
2019-03-21T04:41:08.861Z,4.37
2019-03-21T04:46:25.107Z,3.60
2019-03-21T04:51:41.522Z,3.70
2019-03-21T04:56:57.873Z,3.97
2019-03-21T05:02:13.969Z,3.90
2019-03-21T05:07:30.437Z,4.10
2019-03-21T05:12:47.178Z,3.30
2019-03-21T05:18:11.859Z,3.90
2019-03-21T05:23:28.495Z,3.60
2019-03-21T05:28:44.811Z,3.53
2019-03-21T05:34:01.409Z,3.77
2019-03-21T05:39:18.885Z,4.20
2019-03-21T05:44:43.092Z,3.40
2019-03-21T05:49:59.597Z,4.07
2019-03-21T05:55:16.392Z,4.17
2019-03-21T06:00:37.949Z,3.80
2019-03-21T06:05:59.758Z,4.07
2019-03-21T06:11:16.473Z,4.53
2019-03-21T06:16:37.600Z,3.73
2019-03-21T06:22:39.358Z,3.93
2019-03-21T06:27:55.714Z,4.83
2019-03-21T06:33:12.404Z,4.20
2019-03-21T06:38:29.128Z,3.93
2019-03-21T06:43:47.042Z,3.57
2019-03-21T06:49:03.795Z,3.73
2019-03-21T06:54:21.379Z,3.47
2019-03-21T06:59:38.094Z,3.50
2019-03-21T07:04:54.542Z,3.50
2019-03-21T07:10:12.558Z,4.00
2019-03-21T07:15:30.303Z,3.63
2019-03-21T07:20:47.016Z,3.60
2019-03-21T07:26:03.661Z,3.80
2019-03-21T07:31:20.484Z,3.57
2019-03-21T07:36:37.149Z,3.77
2019-03-21T07:41:53.970Z,3.23
2019-03-21T07:47:13.033Z,3.67
2019-03-21T07:52:28.653Z,3.67
2019-03-21T07:57:45.263Z,3.93
2019-03-21T08:03:02.119Z,3.57
2019-03-21T08:08:18.490Z,3.33
2019-03-21T08:13:35.175Z,4.90
2019-03-21T08:18:53.107Z,4.50
2019-03-21T08:24:09.845Z,5.13
2019-03-21T08:29:26.785Z,4.20
2019-03-21T08:34:43.413Z,4.23
2019-03-21T08:40:00.026Z,4.57
2019-03-21T08:45:17.126Z,4.00
2019-03-21T08:50:33.750Z,4.00
2019-03-21T08:55:50.552Z,4.70
2019-03-21T09:01:07.230Z,4.00
2019-03-21T09:06:23.760Z,3.83
2019-03-21T09:11:41.675Z,3.90
2019-03-21T09:16:58.154Z,3.43
2019-03-21T09:22:16.061Z,3.37
2019-03-21T09:27:32.890Z,4.07
2019-03-21T09:32:49.527Z,3.20
2019-03-21T09:38:05.823Z,2.83
2019-03-21T09:43:22.255Z,2.67
2019-03-21T09:48:39.032Z,2.27
2019-03-21T09:53:55.691Z,2.77
2019-03-21T09:59:12.271Z,2.47
2019-03-21T10:04:28.987Z,3.33
2019-03-21T10:09:45.870Z,2.10
2019-03-21T10:15:02.719Z,2.77
2019-03-21T10:20:18.964Z,2.40
2019-03-21T10:25:36.213Z,2.20
2019-03-21T10:30:52.716Z,2.37
2019-03-21T10:36:08.777Z,2.60
2019-03-21T10:41:25.537Z,3.07
2019-03-21T10:46:42.423Z,2.10
2019-03-21T10:51:59.223Z,2.97
2019-03-21T10:57:16.952Z,2.80
2019-03-21T11:02:33.658Z,2.40
2019-03-21T11:07:51.203Z,2.60
2019-03-21T11:13:09.321Z,2.47
2019-03-21T11:18:35.758Z,2.87
2019-03-21T11:23:47.840Z,2.53
2019-03-21T11:29:04.332Z,2.73
2019-03-21T11:34:21.243Z,3.03
2019-03-21T11:39:37.666Z,2.27
2019-03-21T11:44:57.505Z,1.70
2019-03-21T11:50:19.175Z,1.83
2019-03-21T11:55:35.786Z,1.93
2019-03-21T12:00:52.813Z,2.80
2019-03-21T12:06:09.489Z,2.90
2019-03-21T12:11:28.262Z,2.43
2019-03-21T12:16:44.848Z,3.17
2019-03-21T12:22:01.921Z,2.70
2019-03-21T12:27:18.278Z,2.90
2019-03-21T12:32:35.105Z,2.77
2019-03-21T12:37:55.056Z,3.17
2019-03-21T12:43:11.468Z,3.33
2019-03-21T12:48:27.640Z,3.70
2019-03-21T12:53:44.339Z,4.17
2019-03-21T12:59:00.864Z,3.10
2019-03-21T13:04:18.820Z,2.27
2019-03-21T13:09:35.819Z,2.33
2019-03-21T13:14:52.775Z,2.30
2019-03-21T13:20:09.663Z,2.60
2019-03-21T13:25:26.195Z,2.53
2019-03-21T13:30:42.688Z,2.80
2019-03-21T13:35:59.393Z,2.37
2019-03-21T13:41:15.944Z,2.33
2019-03-21T13:46:32.565Z,2.23
2019-03-21T13:51:49.540Z,1.93
2019-03-21T13:57:06.339Z,2.23
2019-03-21T14:02:26.084Z,2.60
2019-03-21T14:07:44.272Z,2.27
2019-03-21T14:13:00.907Z,2.50
2019-03-21T14:18:17.523Z,2.20
2019-03-21T14:23:42.837Z,2.33
2019-03-21T14:28:52.008Z,3.07
2019-03-21T14:34:08.502Z,2.70
2019-03-21T14:39:25.455Z,2.40
2019-03-21T14:44:44.752Z,2.30
2019-03-21T14:50:00.820Z,2.47
2019-03-21T14:55:17.663Z,2.63
2019-03-21T15:00:34.283Z,3.90
2019-03-21T15:05:50.753Z,2.47
2019-03-21T15:11:16.583Z,2.13
2019-03-21T15:16:25.661Z,2.40
2019-03-21T15:21:41.896Z,2.00
2019-03-21T15:26:58.696Z,1.90
2019-03-21T15:32:15.325Z,2.20
2019-03-21T15:37:31.436Z,2.23
2019-03-21T15:42:48.042Z,2.17
2019-03-21T15:48:04.478Z,2.90
2019-03-21T15:53:20.944Z,2.17
2019-03-21T15:58:37.878Z,2.13
2019-03-21T16:03:54.587Z,2.70
2019-03-21T16:09:11.026Z,2.60
2019-03-21T16:14:27.692Z,2.23
2019-03-21T16:19:44.425Z,2.70
2019-03-21T16:25:00.803Z,2.30
2019-03-21T16:30:17.657Z,2.77
2019-03-21T16:35:33.941Z,2.33
2019-03-21T16:40:50.816Z,10.43
2019-03-21T16:46:07.211Z,3.00
2019-03-21T16:51:23.907Z,3.77
2019-03-21T16:56:40.540Z,3.13
2019-03-21T17:01:57.447Z,3.00
2019-03-21T17:07:16.001Z,2.70
2019-03-21T17:12:32.676Z,2.73
2019-03-21T17:17:49.695Z,3.20
2019-03-21T17:23:09.731Z,2.93
2019-03-21T17:28:26.358Z,2.63
2019-03-21T17:33:43.056Z,2.77
2019-03-21T17:38:59.980Z,2.70
2019-03-21T17:44:16.613Z,3.57
2019-03-21T17:49:33.021Z,3.73
2019-03-21T17:54:49.547Z,2.50
2019-03-21T18:00:09.666Z,4.80
2019-03-21T18:05:26.254Z,2.90
2019-03-21T18:10:42.997Z,3.00
2019-03-21T18:15:59.693Z,3.53
2019-03-21T18:21:16.207Z,3.50
2019-03-21T18:26:33.213Z,3.57
2019-03-21T18:31:50.418Z,3.30
2019-03-21T18:49:38.075Z,3.77
2019-03-21T18:55:06.078Z,3.90
2019-03-21T19:00:39.016Z,4.43
2019-03-21T19:05:58.884Z,3.93
2019-03-21T19:11:20.111Z,3.40
2019-03-21T19:16:40.137Z,3.90
2019-03-21T19:21:57.981Z,3.13
2019-03-21T19:27:19.891Z,4.07
2019-03-21T19:32:37.926Z,4.63
2019-03-21T19:37:58.652Z,4.40
2019-03-21T19:43:17.196Z,4.53
2019-03-21T19:48:35.135Z,3.53
2019-03-21T19:53:57.603Z,4.37
2019-03-21T19:59:17.338Z,5.33
2019-03-21T20:04:37.459Z,5.97
2019-03-21T20:09:56.747Z,5.30
2019-03-21T20:15:16.738Z,4.57
2019-03-21T20:20:33.291Z,3.73
2019-03-21T20:25:50.216Z,3.67
2019-03-21T20:31:07.024Z,3.77
2019-03-21T20:36:24.207Z,4.20
2019-03-21T20:41:40.933Z,3.20
2019-03-21T20:46:57.522Z,3.93
2019-03-21T20:52:14.262Z,3.70
2019-03-21T20:57:31.212Z,3.40
2019-03-21T21:02:48.473Z,3.87
2019-03-21T21:08:08.116Z,4.73
2019-03-21T21:13:24.998Z,3.67
2019-03-21T21:18:42.174Z,3.27
2019-03-21T21:23:59.416Z,4.57
2019-03-21T21:29:16.091Z,3.93
2019-03-21T21:34:33.022Z,3.47
2019-03-21T21:39:50.851Z,3.33
2019-03-21T21:45:08.505Z,4.10
2019-03-21T21:50:24.942Z,3.27
2019-03-21T21:55:41.858Z,3.53
2019-03-21T22:00:58.419Z,4.00
2019-03-21T22:06:38.151Z,3.67
2019-03-21T22:11:57.033Z,4.10
2019-03-21T22:17:13.725Z,3.90
2019-03-21T22:22:30.537Z,3.50
2019-03-21T22:27:47.511Z,3.73
2019-03-21T22:33:04.335Z,4.57
2019-03-21T22:38:21.180Z,5.23
2019-03-21T22:43:38.081Z,5.07
2019-03-21T22:48:54.689Z,4.87
2019-03-21T22:54:11.251Z,4.70
2019-03-21T22:59:28.197Z,4.80
2019-03-21T23:04:44.524Z,5.03
2019-03-21T23:10:03.027Z,4.40
2019-03-21T23:15:19.402Z,4.00
2019-03-21T23:20:36.356Z,4.57
2019-03-21T23:25:53.123Z,5.53
2019-03-21T23:31:09.965Z,6.47
2019-03-21T23:36:27.541Z,6.40
2019-03-21T23:41:44.098Z,6.60
2019-03-21T23:47:01.805Z,6.20
2019-03-21T23:52:18.764Z,5.70
2019-03-21T23:57:35.287Z,5.83
